createdAt,value
2022-08-22T00:00:43.985Z,0.00
2022-08-22T00:01:42.995Z,0.00
2022-08-22T00:02:42.245Z,0.00
2022-08-22T00:02:45.054Z,0.00
2022-08-22T00:03:07.953Z,0.00
2022-08-22T00:03:10.470Z,0.00
2022-08-22T00:03:15.396Z,0.00
2022-08-22T00:03:15.934Z,0.00
2022-08-22T00:03:16.022Z,0.00
2022-08-22T00:03:44.072Z,0.00
2022-08-22T00:04:42.976Z,0.00
2022-08-22T00:05:42.977Z,0.00
2022-08-22T00:06:42.966Z,0.00
2022-08-22T00:07:42.946Z,0.00
2022-08-22T00:08:42.952Z,0.00
2022-08-22T00:09:43.024Z,0.00
2022-08-22T00:10:42.927Z,0.00
2022-08-22T00:11:42.932Z,0.00
2022-08-22T00:12:42.913Z,0.00
2022-08-22T00:13:42.950Z,0.00
2022-08-22T00:14:42.930Z,0.00
2022-08-22T00:15:44.398Z,0.00
2022-08-22T00:16:43.901Z,0.00
2022-08-22T00:17:42.909Z,0.00
2022-08-22T00:18:42.884Z,0.00
2022-08-22T00:19:42.895Z,0.00
2022-08-22T00:20:43.049Z,0.00
2022-08-22T00:21:42.885Z,0.00
2022-08-22T00:22:42.876Z,0.00
2022-08-22T00:23:42.851Z,0.00
2022-08-22T00:24:42.864Z,0.00
2022-08-22T00:25:42.979Z,0.00
2022-08-22T00:26:45.414Z,0.00
2022-08-22T00:27:45.186Z,0.00
2022-08-22T00:28:42.838Z,0.00
2022-08-22T00:29:43.562Z,0.00
2022-08-22T00:30:42.863Z,0.00
2022-08-22T00:31:42.924Z,0.00
2022-08-22T00:32:42.810Z,0.00
2022-08-22T00:33:42.814Z,0.00
2022-08-22T00:34:42.810Z,0.00
2022-08-22T00:35:45.093Z,0.00
2022-08-22T00:36:43.826Z,0.00
2022-08-22T00:37:42.787Z,0.00
2022-08-22T00:38:42.821Z,0.00
2022-08-22T00:39:42.799Z,0.00
2022-08-22T00:40:42.785Z,0.00
2022-08-22T00:41:42.770Z,0.00
2022-08-22T00:42:42.768Z,0.00
2022-08-22T00:43:43.662Z,0.00
2022-08-22T00:44:42.757Z,0.00
2022-08-22T00:45:42.745Z,0.00
2022-08-22T00:46:42.756Z,0.00
2022-08-22T00:47:42.746Z,0.00
2022-08-22T00:48:42.743Z,0.00
2022-08-22T00:49:42.715Z,0.00
2022-08-22T00:50:42.703Z,0.00
2022-08-22T00:51:42.716Z,0.00
2022-08-22T00:52:42.729Z,0.00
2022-08-22T00:53:42.695Z,0.00
2022-08-22T00:54:42.686Z,0.00
2022-08-22T00:55:42.679Z,0.00
2022-08-22T00:56:45.966Z,0.00
2022-08-22T00:57:42.687Z,0.00
2022-08-22T00:58:42.679Z,0.00
2022-08-22T00:59:42.673Z,0.00
2022-08-22T01:00:42.681Z,0.00
2022-08-22T01:01:42.671Z,0.00
2022-08-22T01:02:42.650Z,0.00
2022-08-22T01:03:42.648Z,0.00
2022-08-22T01:04:42.641Z,0.00
2022-08-22T01:05:42.620Z,0.00
2022-08-22T01:06:42.651Z,0.00
2022-08-22T01:07:42.842Z,0.00
2022-08-22T01:08:42.618Z,0.00
2022-08-22T01:09:42.600Z,0.00
2022-08-22T01:10:42.616Z,0.00
2022-08-22T01:11:42.619Z,0.00
2022-08-22T01:12:42.590Z,0.00
2022-08-22T01:13:42.602Z,0.00
2022-08-22T01:14:42.703Z,0.00
2022-08-22T01:15:42.586Z,0.00
2022-08-22T01:16:42.579Z,0.00
2022-08-22T01:17:42.685Z,0.00
2022-08-22T01:18:42.538Z,0.00
2022-08-22T01:19:43.565Z,0.00
2022-08-22T01:20:42.569Z,0.00
2022-08-22T01:21:42.538Z,0.00
2022-08-22T01:22:42.558Z,0.00
2022-08-22T01:23:42.593Z,0.00
2022-08-22T01:24:42.533Z,0.00
2022-08-22T01:25:42.511Z,0.00
2022-08-22T01:26:44.797Z,0.00
2022-08-22T01:27:42.516Z,0.00
2022-08-22T01:28:42.626Z,0.00
2022-08-22T01:29:42.512Z,0.00
2022-08-22T01:30:42.502Z,0.00
2022-08-22T01:31:42.519Z,0.00
2022-08-22T01:32:42.469Z,0.00
2022-08-22T01:33:42.485Z,0.00
2022-08-22T01:34:42.603Z,0.00
2022-08-22T01:35:42.482Z,0.00
2022-08-22T01:36:42.459Z,0.00
2022-08-22T01:37:43.643Z,0.00
2022-08-22T01:38:42.461Z,0.00
2022-08-22T01:39:42.497Z,0.00
2022-08-22T01:40:53.881Z,0.00
2022-08-22T01:41:43.446Z,0.00
2022-08-22T01:42:42.437Z,0.00
2022-08-22T01:43:59.329Z,0.00
2022-08-22T01:44:43.447Z,0.00
2022-08-22T01:45:43.431Z,0.00
2022-08-22T01:46:42.429Z,0.00
2022-08-22T01:47:42.413Z,0.00
2022-08-22T01:48:42.398Z,0.00
2022-08-22T01:49:42.397Z,0.00
2022-08-22T01:50:42.434Z,0.00
2022-08-22T01:51:42.381Z,0.00
2022-08-22T01:52:42.370Z,0.00
2022-08-22T01:53:42.382Z,0.00
2022-08-22T01:54:42.386Z,0.00
2022-08-22T01:55:42.479Z,0.00
2022-08-22T01:56:42.361Z,0.00
2022-08-22T01:57:42.369Z,0.00
2022-08-22T01:58:42.337Z,0.00
2022-08-22T01:59:42.909Z,0.00
2022-08-22T02:00:42.356Z,0.00
2022-08-22T02:01:42.348Z,0.00
2022-08-22T02:02:42.318Z,0.00
2022-08-22T02:03:42.325Z,0.00
2022-08-22T02:04:42.326Z,0.00
2022-08-22T02:05:42.322Z,0.00
2022-08-22T02:06:42.441Z,0.00
2022-08-22T02:07:42.291Z,0.00
2022-08-22T02:08:42.280Z,0.00
2022-08-22T02:09:42.288Z,0.00
2022-08-22T02:10:42.289Z,0.00
2022-08-22T02:11:42.282Z,0.00
2022-08-22T02:12:42.280Z,0.00
2022-08-22T02:13:42.275Z,0.00
2022-08-22T02:14:42.258Z,0.00
2022-08-22T02:15:44.012Z,0.00
2022-08-22T02:16:42.251Z,0.00
2022-08-22T02:17:42.278Z,0.00
2022-08-22T02:18:42.229Z,0.00
2022-08-22T02:19:42.227Z,0.00
2022-08-22T02:20:42.230Z,0.00
2022-08-22T02:21:42.238Z,0.00
2022-08-22T02:22:44.577Z,0.00
2022-08-22T02:23:42.315Z,0.00
2022-08-22T02:24:42.204Z,0.00
2022-08-22T02:25:42.206Z,0.00
2022-08-22T02:26:42.182Z,0.00
2022-08-22T02:27:42.179Z,0.00
2022-08-22T02:28:56.582Z,0.00
2022-08-22T02:29:43.158Z,0.00
2022-08-22T02:30:42.181Z,0.00
2022-08-22T02:31:42.176Z,0.00
2022-08-22T02:32:42.155Z,0.00
2022-08-22T02:33:42.153Z,0.00
2022-08-22T02:34:42.167Z,0.00
2022-08-22T02:35:42.134Z,0.00
2022-08-22T02:36:42.142Z,0.00
2022-08-22T02:37:42.112Z,0.00
2022-08-22T02:38:42.104Z,0.00
2022-08-22T02:39:42.234Z,0.00
2022-08-22T02:40:42.086Z,0.00
2022-08-22T02:41:42.112Z,0.00
2022-08-22T02:42:42.105Z,0.00
2022-08-22T02:43:42.084Z,0.00
2022-08-22T02:44:42.077Z,0.00
2022-08-22T02:45:42.194Z,0.00
2022-08-22T02:46:42.076Z,0.00
2022-08-22T02:47:42.067Z,0.00
2022-08-22T02:48:42.068Z,0.00
2022-08-22T02:49:43.928Z,0.00
2022-08-22T02:50:42.074Z,0.00
2022-08-22T02:51:42.048Z,0.00
2022-08-22T02:52:42.038Z,0.00
2022-08-22T02:53:42.034Z,0.00
2022-08-22T02:54:42.027Z,0.00
2022-08-22T02:55:42.030Z,0.00
2022-08-22T02:56:42.130Z,0.00
2022-08-22T02:57:42.011Z,0.00
2022-08-22T02:58:42.011Z,0.00
2022-08-22T02:59:41.986Z,0.00
2022-08-22T03:00:42.018Z,0.00
2022-08-22T03:01:42.040Z,0.00
2022-08-22T03:02:41.983Z,0.00
2022-08-22T03:03:41.965Z,0.00
2022-08-22T03:04:41.957Z,0.00
2022-08-22T03:05:41.952Z,0.00
2022-08-22T03:06:41.955Z,0.00
2022-08-22T03:07:41.976Z,0.00
2022-08-22T03:08:42.927Z,0.00
2022-08-22T03:09:41.944Z,0.00
2022-08-22T03:10:41.939Z,0.00
2022-08-22T03:11:41.938Z,0.00
2022-08-22T03:12:41.954Z,0.00
2022-08-22T03:13:41.910Z,0.00
2022-08-22T03:14:41.910Z,0.00
2022-08-22T03:15:48.451Z,0.00
2022-08-22T03:16:42.902Z,0.00
2022-08-22T03:17:41.904Z,0.00
2022-08-22T03:18:42.006Z,0.00
2022-08-22T03:19:41.917Z,0.00
2022-08-22T03:20:41.877Z,0.00
2022-08-22T03:21:41.880Z,0.00
2022-08-22T03:22:41.868Z,0.00
2022-08-22T03:23:41.985Z,0.00
2022-08-22T03:24:41.845Z,0.00
2022-08-22T03:25:41.862Z,0.00
2022-08-22T03:26:41.852Z,0.00
2022-08-22T03:27:41.842Z,0.00
2022-08-22T03:28:59.157Z,0.00
2022-08-22T03:29:42.870Z,0.00
2022-08-22T03:30:42.837Z,0.00
2022-08-22T03:31:41.822Z,0.00
2022-08-22T03:32:41.815Z,0.00
2022-08-22T03:33:41.804Z,0.00
2022-08-22T03:34:41.899Z,0.00
2022-08-22T03:35:41.799Z,0.00
2022-08-22T03:36:41.800Z,0.00
2022-08-22T03:37:41.772Z,0.00
2022-08-22T03:38:41.789Z,0.00
2022-08-22T03:39:41.795Z,0.00
2022-08-22T03:40:41.908Z,0.00
2022-08-22T03:41:41.766Z,0.00
2022-08-22T03:42:41.764Z,0.00
2022-08-22T03:43:41.754Z,0.00
2022-08-22T03:44:41.756Z,0.00
2022-08-22T03:45:41.798Z,0.00
2022-08-22T03:46:41.752Z,0.00
2022-08-22T03:47:41.721Z,0.00
2022-08-22T03:48:41.724Z,0.00
2022-08-22T03:49:41.723Z,4.00
2022-08-22T03:50:41.716Z,4.00
2022-08-22T03:51:41.816Z,4.00
2022-08-22T03:52:41.698Z,0.00
2022-08-22T03:53:41.692Z,4.00
2022-08-22T03:54:41.705Z,4.00
2022-08-22T03:55:41.698Z,4.00
2022-08-22T03:56:41.697Z,8.00
2022-08-22T03:57:41.669Z,8.00
2022-08-22T03:58:41.685Z,12.00
2022-08-22T03:59:42.589Z,12.00
2022-08-22T04:00:41.701Z,12.00
2022-08-22T04:02:33.369Z,16.00
2022-08-22T04:02:44.263Z,20.00
2022-08-22T04:03:41.647Z,20.00
2022-08-22T04:04:41.639Z,24.00
2022-08-22T04:05:41.646Z,24.00
2022-08-22T04:06:41.619Z,28.00
2022-08-22T04:07:41.903Z,32.00
2022-08-22T04:08:43.833Z,36.00
2022-08-22T04:09:41.614Z,44.00
2022-08-22T04:10:41.606Z,52.00
2022-08-22T04:11:41.598Z,56.00
2022-08-22T04:12:41.625Z,64.00
2022-08-22T04:13:41.586Z,72.00
2022-08-22T04:14:41.575Z,80.00
2022-08-22T04:15:41.578Z,88.00
2022-08-22T04:16:41.563Z,96.00
2022-08-22T04:17:41.575Z,108.00
2022-08-22T04:18:41.586Z,120.00
2022-08-22T04:19:41.546Z,128.00
2022-08-22T04:20:41.541Z,140.00
2022-08-22T04:21:41.544Z,156.00
2022-08-22T04:22:41.605Z,168.00
2022-08-22T04:23:41.583Z,180.00
2022-08-22T04:24:41.542Z,200.00
2022-08-22T04:25:41.523Z,216.00
2022-08-22T04:26:41.524Z,232.00
2022-08-22T04:27:41.497Z,248.00
2022-08-22T04:28:41.525Z,268.00
2022-08-22T04:29:41.520Z,284.00
2022-08-22T04:30:41.500Z,308.00
2022-08-22T04:31:41.499Z,332.00
2022-08-22T04:32:41.503Z,356.00
2022-08-22T04:33:41.495Z,380.00
2022-08-22T04:34:41.510Z,400.00
2022-08-22T04:35:41.478Z,416.00
2022-08-22T04:36:41.490Z,440.00
2022-08-22T04:37:41.467Z,464.00
2022-08-22T04:38:41.463Z,488.00
2022-08-22T04:39:41.534Z,528.00
2022-08-22T04:40:41.476Z,560.00
2022-08-22T04:41:41.453Z,592.00
2022-08-22T04:42:41.434Z,632.00
2022-08-22T04:43:41.437Z,680.00
2022-08-22T04:44:41.409Z,724.00
2022-08-22T04:45:41.443Z,764.00
2022-08-22T04:46:41.427Z,804.00
2022-08-22T04:47:41.400Z,840.00
2022-08-22T04:48:41.405Z,872.00
2022-08-22T04:49:41.393Z,904.00
2022-08-22T04:50:43.323Z,940.00
2022-08-22T04:51:42.391Z,972.00
2022-08-22T04:52:41.381Z,1004.00
2022-08-22T04:53:41.376Z,1040.00
2022-08-22T04:54:41.382Z,1072.00
2022-08-22T04:55:41.342Z,1108.00
2022-08-22T04:56:41.363Z,1140.00
2022-08-22T04:57:41.368Z,1172.00
2022-08-22T04:58:41.338Z,1208.00
2022-08-22T04:59:41.353Z,1240.00
2022-08-22T05:00:41.330Z,1276.00
2022-08-22T05:01:41.394Z,1312.00
2022-08-22T05:02:41.328Z,1344.00
2022-08-22T05:03:44.861Z,1372.00
2022-08-22T05:04:41.307Z,1408.00
2022-08-22T05:05:41.289Z,1440.00
2022-08-22T05:06:41.308Z,1472.00
2022-08-22T05:07:41.290Z,1504.00
2022-08-22T05:08:41.275Z,1540.00
2022-08-22T05:09:41.277Z,1572.00
2022-08-22T05:10:41.276Z,1608.00
2022-08-22T05:11:41.286Z,1648.00
2022-08-22T05:12:41.267Z,1684.00
2022-08-22T05:13:41.261Z,1720.00
2022-08-22T05:14:41.244Z,1756.00
2022-08-22T05:15:41.240Z,1792.00
2022-08-22T05:16:41.257Z,1828.00
2022-08-22T05:17:41.251Z,1864.00
2022-08-22T05:18:41.230Z,1900.00
2022-08-22T05:19:41.213Z,1936.00
2022-08-22T05:20:41.228Z,1972.00
2022-08-22T05:21:41.226Z,2008.00
2022-08-22T05:22:41.224Z,2044.00
2022-08-22T05:23:41.203Z,2104.00
2022-08-22T05:24:41.196Z,2172.00
2022-08-22T05:25:41.185Z,2180.00
2022-08-22T05:26:41.201Z,2248.00
2022-08-22T05:27:41.197Z,2292.00
2022-08-22T05:28:41.192Z,2276.00
2022-08-22T05:29:41.177Z,2292.00
2022-08-22T05:30:41.155Z,2320.00
2022-08-22T05:31:41.168Z,2356.00
2022-08-22T05:32:41.162Z,2404.00
2022-08-22T05:33:41.165Z,2436.00
2022-08-22T05:34:41.146Z,2472.00
2022-08-22T05:35:41.925Z,2536.00
2022-08-22T05:36:41.142Z,2560.00
2022-08-22T05:37:42.153Z,2556.00
2022-08-22T05:38:41.133Z,2588.00
2022-08-22T05:39:41.182Z,2616.00
2022-08-22T05:40:41.125Z,2652.00
2022-08-22T05:41:41.113Z,2688.00
2022-08-22T05:42:41.237Z,2724.00
2022-08-22T05:43:41.108Z,2756.00
2022-08-22T05:44:41.097Z,2796.00
2022-08-22T05:45:41.090Z,2832.00
2022-08-22T05:46:41.093Z,2864.00
2022-08-22T05:47:41.065Z,2916.00
2022-08-22T05:48:41.095Z,2988.00
2022-08-22T05:49:41.077Z,3004.00
2022-08-22T05:50:41.053Z,3036.00
2022-08-22T05:51:41.033Z,3060.00
2022-08-22T05:52:41.035Z,3144.00
2022-08-22T05:53:41.156Z,3332.00
2022-08-22T05:54:41.040Z,3552.00
2022-08-22T05:55:41.013Z,4164.00
2022-08-22T05:56:41.008Z,4188.00
2022-08-22T05:57:40.996Z,3488.00
2022-08-22T05:58:41.004Z,3360.00
2022-08-22T05:59:41.007Z,3400.00
2022-08-22T06:00:40.994Z,3448.00
2022-08-22T06:01:41.039Z,3480.00
2022-08-22T06:02:40.996Z,3524.00
2022-08-22T06:03:40.956Z,3588.00
2022-08-22T06:04:40.988Z,3676.00
2022-08-22T06:05:40.964Z,3720.00
2022-08-22T06:06:40.972Z,3736.00
2022-08-22T06:07:40.950Z,3780.00
2022-08-22T06:08:40.936Z,3824.00
2022-08-22T06:09:40.939Z,3884.00
2022-08-22T06:10:40.943Z,3928.00
2022-08-22T06:11:40.924Z,3960.00
2022-08-22T06:12:43.101Z,3956.00
2022-08-22T06:13:41.457Z,3984.00
2022-08-22T06:14:40.929Z,4024.00
2022-08-22T06:15:40.941Z,4064.00
2022-08-22T06:16:40.902Z,4112.00
2022-08-22T06:17:40.892Z,4160.00
2022-08-22T06:18:40.908Z,4212.00
2022-08-22T06:19:40.871Z,4268.00
2022-08-22T06:20:42.081Z,4312.00
2022-08-22T06:21:40.894Z,4356.00
2022-08-22T06:22:40.861Z,4412.00
2022-08-22T06:23:40.861Z,4496.00
2022-08-22T06:24:40.861Z,4676.00
2022-08-22T06:25:40.845Z,5700.00
2022-08-22T06:26:40.882Z,7308.00
2022-08-22T06:27:40.848Z,9996.00
2022-08-22T06:28:46.693Z,7372.00
2022-08-22T06:29:40.833Z,6256.00
2022-08-22T06:30:40.833Z,9236.00
2022-08-22T06:31:40.840Z,24640.00
2022-08-22T06:32:59.368Z,21600.00
2022-08-22T06:33:43.300Z,5920.00
2022-08-22T06:34:41.813Z,5088.00
2022-08-22T06:35:40.777Z,6148.00
2022-08-22T06:36:40.776Z,8188.00
2022-08-22T06:37:40.804Z,15840.00
2022-08-22T06:38:40.763Z,23648.00
2022-08-22T06:39:40.798Z,19552.00
2022-08-22T06:40:40.770Z,11752.00
2022-08-22T06:41:40.745Z,7724.00
2022-08-22T06:42:40.858Z,6896.00
2022-08-22T06:43:40.738Z,10116.00
2022-08-22T06:44:40.738Z,23872.00
2022-08-22T06:45:40.743Z,32544.00
2022-08-22T06:46:40.725Z,33120.00
2022-08-22T06:47:40.712Z,34400.00
2022-08-22T06:48:40.750Z,31840.00
2022-08-22T06:49:40.718Z,29568.00
2022-08-22T06:50:40.744Z,29792.00
2022-08-22T06:51:40.709Z,29984.00
2022-08-22T06:52:40.694Z,30528.00
2022-08-22T06:53:47.953Z,29888.00
2022-08-22T06:54:41.686Z,28128.00
2022-08-22T06:55:40.672Z,26752.00
2022-08-22T06:56:40.666Z,26688.00
2022-08-22T06:57:40.665Z,28064.00
2022-08-22T06:58:40.688Z,22336.00
2022-08-22T06:59:40.781Z,23840.00
2022-08-22T07:00:40.664Z,30368.00
2022-08-22T07:01:40.705Z,34240.00
2022-08-22T07:02:40.653Z,37504.00
2022-08-22T07:03:40.640Z,38112.00
2022-08-22T07:04:40.732Z,38624.00
2022-08-22T07:05:40.630Z,39392.00
2022-08-22T07:06:40.623Z,37888.00
2022-08-22T07:07:40.616Z,37536.00
2022-08-22T07:08:40.602Z,38560.00
2022-08-22T07:09:40.597Z,40352.00
2022-08-22T07:10:40.615Z,41536.00
2022-08-22T07:11:40.594Z,40672.00
2022-08-22T07:12:40.602Z,40704.00
2022-08-22T07:13:40.576Z,40864.00
2022-08-22T07:14:41.279Z,42048.00
2022-08-22T07:15:40.670Z,45440.00
2022-08-22T07:16:40.565Z,49408.00
2022-08-22T07:17:40.760Z,49856.00
2022-08-22T07:18:41.552Z,49408.00
2022-08-22T07:19:40.563Z,54400.00
2022-08-22T07:20:40.537Z,55648.00
2022-08-22T07:21:40.581Z,45312.00
2022-08-22T07:22:40.553Z,35840.00
2022-08-22T07:23:40.553Z,32736.00
2022-08-22T07:24:40.542Z,31360.00
2022-08-22T07:25:40.514Z,30912.00
2022-08-22T07:26:40.556Z,30496.00
2022-08-22T07:27:40.505Z,30400.00
2022-08-22T07:28:51.316Z,30272.00
2022-08-22T07:29:41.536Z,30144.00
2022-08-22T07:30:40.509Z,29984.00
2022-08-22T07:31:40.473Z,30240.00
2022-08-22T07:32:40.504Z,30304.00
2022-08-22T07:33:40.464Z,30272.00
2022-08-22T07:34:40.483Z,30432.00
2022-08-22T07:35:40.473Z,30560.00
2022-08-22T07:36:40.470Z,30688.00
2022-08-22T07:37:40.527Z,30816.00
2022-08-22T07:38:40.465Z,31104.00
2022-08-22T07:39:41.465Z,31296.00
2022-08-22T07:40:40.458Z,31712.00
2022-08-22T07:41:40.458Z,32352.00
2022-08-22T07:42:40.459Z,34304.00
2022-08-22T07:43:40.438Z,40224.00
2022-08-22T07:44:40.445Z,47808.00
2022-08-22T07:45:40.443Z,50528.00
2022-08-22T07:46:40.427Z,51232.00
2022-08-22T07:47:41.426Z,54176.00
2022-08-22T07:48:59.315Z,53984.00
2022-08-22T07:49:45.910Z,56352.00
2022-08-22T07:50:40.390Z,59520.00
2022-08-22T07:51:40.390Z,57696.00
2022-08-22T07:52:40.382Z,60096.00
2022-08-22T07:53:40.373Z,64160.00
2022-08-22T07:54:40.410Z,60672.00
2022-08-22T07:55:42.213Z,63040.00
2022-08-22T07:56:40.361Z,67552.00
2022-08-22T07:57:40.359Z,63488.00
2022-08-22T07:58:40.340Z,62368.00
2022-08-22T07:59:40.349Z,63264.00
2022-08-22T08:00:40.341Z,61376.00
2022-08-22T08:01:40.377Z,56640.00
2022-08-22T08:02:40.338Z,58784.00
2022-08-22T08:03:40.336Z,64768.00
2022-08-22T08:04:40.760Z,65184.00
2022-08-22T08:05:41.435Z,63936.00
2022-08-22T08:06:40.290Z,61024.00
2022-08-22T08:07:40.327Z,61920.00
2022-08-22T08:08:40.314Z,64224.00
2022-08-22T08:09:40.299Z,61152.00
2022-08-22T08:10:40.296Z,61696.00
2022-08-22T08:11:40.316Z,63168.00
2022-08-22T08:12:40.284Z,59744.00
2022-08-22T08:13:40.299Z,58816.00
2022-08-22T08:14:40.281Z,61888.00
2022-08-22T08:15:40.273Z,66272.00
2022-08-22T08:16:40.287Z,65600.00
2022-08-22T08:17:40.270Z,63392.00
2022-08-22T08:18:40.237Z,59072.00
2022-08-22T08:19:40.255Z,56544.00
2022-08-22T08:20:40.241Z,62144.00
2022-08-22T08:21:40.243Z,63488.00
2022-08-22T08:22:40.255Z,59040.00
2022-08-22T08:23:40.235Z,59232.00
2022-08-22T08:24:41.522Z,67168.00
2022-08-22T08:25:40.287Z,63968.00
2022-08-22T08:26:40.213Z,61280.00
2022-08-22T08:27:40.245Z,62272.00
2022-08-22T08:28:40.205Z,64288.00
2022-08-22T08:29:40.201Z,68576.00
2022-08-22T08:30:40.210Z,66752.00
2022-08-22T08:31:43.286Z,61600.00
2022-08-22T08:32:40.182Z,59648.00
2022-08-22T08:33:40.312Z,62592.00
2022-08-22T08:34:40.165Z,64416.00
2022-08-22T08:36:01.828Z,64160.00
2022-08-22T08:36:41.185Z,63584.00
2022-08-22T08:37:40.164Z,62176.00
2022-08-22T08:38:40.160Z,64064.00
2022-08-22T08:39:40.229Z,66336.00
2022-08-22T08:40:40.149Z,64000.00
2022-08-22T08:41:40.160Z,65216.00
2022-08-22T08:42:40.130Z,64288.00
2022-08-22T08:43:40.142Z,64384.00
2022-08-22T08:44:40.245Z,65952.00
2022-08-22T08:45:40.149Z,64960.00
2022-08-22T08:46:40.138Z,68960.00
2022-08-22T08:47:40.124Z,66656.00
2022-08-22T08:48:40.130Z,63200.00
2022-08-22T08:49:42.175Z,66048.00
2022-08-22T08:50:40.108Z,63840.00
2022-08-22T08:51:40.117Z,59424.00
2022-08-22T08:52:40.121Z,61632.00
2022-08-22T08:53:41.205Z,62144.00
2022-08-22T08:54:40.109Z,61888.00
2022-08-22T08:55:40.131Z,64096.00
2022-08-22T08:56:40.095Z,65312.00
2022-08-22T08:57:40.095Z,65120.00
2022-08-22T08:58:40.078Z,66048.00
2022-08-22T08:59:40.454Z,64832.00
2022-08-22T09:00:40.087Z,63488.00
2022-08-22T09:01:40.100Z,65248.00
2022-08-22T09:02:42.455Z,70848.00
2022-08-22T09:03:40.208Z,73344.00
2022-08-22T09:04:40.043Z,73760.00
2022-08-22T09:05:40.049Z,72480.00
2022-08-22T09:06:42.521Z,71328.00
2022-08-22T09:07:40.038Z,73120.00
2022-08-22T09:08:40.030Z,72096.00
2022-08-22T09:09:40.038Z,68384.00
2022-08-22T09:10:40.038Z,67520.00
2022-08-22T09:11:40.048Z,67936.00
2022-08-22T09:12:52.228Z,65280.00
2022-08-22T09:13:41.084Z,60768.00
2022-08-22T09:14:40.007Z,59008.00
2022-08-22T09:15:39.996Z,59968.00
2022-08-22T09:16:46.302Z,56896.00
2022-08-22T09:17:40.122Z,53952.00
2022-08-22T09:18:39.988Z,59104.00
2022-08-22T09:19:39.987Z,63392.00
2022-08-22T09:20:39.989Z,63776.00
2022-08-22T09:21:39.985Z,63360.00
2022-08-22T09:22:50.020Z,64928.00
2022-08-22T09:23:40.970Z,68480.00
2022-08-22T09:24:39.967Z,65568.00
2022-08-22T09:25:40.562Z,62528.00
2022-08-22T09:26:39.977Z,65376.00
2022-08-22T09:27:39.956Z,65408.00
2022-08-22T09:28:40.064Z,65920.00
2022-08-22T09:29:54.818Z,65472.00
2022-08-22T09:30:39.951Z,62592.00
2022-08-22T09:32:40.910Z,61792.00
2022-08-22T09:33:40.046Z,59520.00
2022-08-22T09:34:39.942Z,59936.00
2022-08-22T09:35:39.907Z,58656.00
2022-08-22T09:36:39.916Z,62464.00
2022-08-22T09:37:39.906Z,67904.00
2022-08-22T09:38:39.898Z,68224.00
2022-08-22T09:39:40.993Z,65248.00
2022-08-22T09:40:39.906Z,60448.00
2022-08-22T09:41:39.915Z,60672.00
2022-08-22T09:42:39.880Z,63744.00
2022-08-22T09:43:45.046Z,60352.00
2022-08-22T09:44:40.122Z,57696.00
2022-08-22T09:45:39.874Z,59776.00
2022-08-22T09:46:39.864Z,61856.00
2022-08-22T09:47:40.868Z,59648.00
2022-08-22T09:48:39.863Z,56864.00
2022-08-22T09:49:39.837Z,58336.00
2022-08-22T09:50:39.949Z,58976.00
2022-08-22T09:51:39.844Z,54752.00
2022-08-22T09:52:40.857Z,49024.00
2022-08-22T09:53:39.842Z,41568.00
2022-08-22T09:54:39.839Z,32288.00
2022-08-22T09:55:39.880Z,23264.00
2022-08-22T09:56:39.819Z,17760.00
2022-08-22T09:57:39.807Z,16448.00
2022-08-22T09:58:41.797Z,15520.00
2022-08-22T09:59:39.803Z,14608.00
2022-08-22T10:00:40.103Z,13952.00
2022-08-22T10:02:15.329Z,13396.00
2022-08-22T10:02:43.656Z,12944.00
2022-08-22T10:03:39.773Z,12508.00
2022-08-22T10:04:39.790Z,12108.00
2022-08-22T10:05:43.567Z,11780.00
2022-08-22T10:06:39.771Z,11500.00
2022-08-22T10:07:39.812Z,11256.00
2022-08-22T10:08:39.766Z,11052.00
2022-08-22T10:09:39.745Z,10840.00
2022-08-22T10:10:39.738Z,10648.00
2022-08-22T10:11:42.162Z,10452.00
2022-08-22T10:12:39.779Z,10244.00
2022-08-22T10:13:40.731Z,9988.00
2022-08-22T10:14:39.734Z,9740.00
2022-08-22T10:15:39.730Z,9556.00
2022-08-22T10:16:39.696Z,9400.00
2022-08-22T10:17:40.986Z,9328.00
2022-08-22T10:18:43.974Z,9292.00
2022-08-22T10:19:40.704Z,9280.00
2022-08-22T10:20:39.707Z,9188.00
2022-08-22T10:21:40.699Z,9104.00
2022-08-22T10:22:39.686Z,8960.00
2022-08-22T10:23:39.811Z,8836.00
2022-08-22T10:24:43.549Z,8764.00
2022-08-22T10:25:41.785Z,8652.00
2022-08-22T10:26:39.685Z,8592.00
2022-08-22T10:27:39.670Z,8652.00
2022-08-22T10:28:39.667Z,8816.00
2022-08-22T10:29:39.676Z,8884.00
2022-08-22T10:30:39.636Z,8956.00
2022-08-22T10:31:58.657Z,8996.00
2022-08-22T10:32:40.626Z,8908.00
2022-08-22T10:33:39.725Z,8964.00
2022-08-22T10:34:39.734Z,9068.00
2022-08-22T10:35:39.637Z,9036.00
2022-08-22T10:36:39.619Z,8940.00
2022-08-22T10:37:39.708Z,8880.00
2022-08-22T10:38:46.202Z,8776.00
2022-08-22T10:39:40.638Z,8712.00
2022-08-22T10:40:39.608Z,8632.00
2022-08-22T10:41:39.603Z,8596.00
2022-08-22T10:42:39.607Z,8556.00
2022-08-22T10:43:40.919Z,8512.00
2022-08-22T10:44:39.572Z,8532.00
2022-08-22T10:45:39.692Z,8516.00
2022-08-22T10:46:39.559Z,8468.00
2022-08-22T10:47:39.570Z,8432.00
2022-08-22T10:48:39.548Z,8320.00
2022-08-22T10:49:39.553Z,8264.00
2022-08-22T10:50:39.558Z,8264.00
2022-08-22T10:51:39.530Z,8340.00
2022-08-22T10:52:39.548Z,8480.00
2022-08-22T10:53:39.550Z,8644.00
2022-08-22T10:54:39.531Z,8764.00
2022-08-22T10:55:39.533Z,8872.00
2022-08-22T10:56:40.600Z,8976.00
2022-08-22T10:57:39.508Z,9096.00
2022-08-22T10:58:39.521Z,9216.00
2022-08-22T10:59:39.521Z,9304.00
2022-08-22T11:00:46.225Z,9296.00
2022-08-22T11:01:42.117Z,9268.00
2022-08-22T11:02:39.495Z,9260.00
2022-08-22T11:03:39.485Z,9340.00
2022-08-22T11:04:39.475Z,9220.00
2022-08-22T11:05:39.500Z,8988.00
2022-08-22T11:06:39.479Z,8672.00
2022-08-22T11:07:39.572Z,7252.00
2022-08-22T11:08:39.457Z,8940.00
2022-08-22T11:09:39.439Z,9108.00
2022-08-22T11:10:39.435Z,9296.00
2022-08-22T11:11:39.498Z,9160.00
2022-08-22T11:12:41.811Z,8880.00
2022-08-22T11:13:39.459Z,8704.00
2022-08-22T11:14:39.424Z,8544.00
2022-08-22T11:15:39.423Z,8392.00
2022-08-22T11:16:41.784Z,8292.00
2022-08-22T11:17:42.620Z,8228.00
2022-08-22T11:18:40.461Z,8176.00
2022-08-22T11:19:39.409Z,8188.00
2022-08-22T11:20:39.401Z,8224.00
2022-08-22T11:21:39.375Z,8292.00
2022-08-22T11:22:39.366Z,8356.00
2022-08-22T11:23:40.410Z,8392.00
2022-08-22T11:24:55.251Z,8364.00
2022-08-22T11:25:39.391Z,8396.00
2022-08-22T11:26:47.004Z,8616.00
2022-08-22T11:27:41.373Z,8680.00
2022-08-22T11:28:39.388Z,8548.00
2022-08-22T11:29:39.356Z,8464.00
2022-08-22T11:30:44.270Z,8388.00
2022-08-22T11:31:47.344Z,8320.00
2022-08-22T11:32:39.341Z,8212.00
2022-08-22T11:33:47.382Z,8176.00
2022-08-22T11:34:40.343Z,8224.00
2022-08-22T11:35:39.335Z,8280.00
2022-08-22T11:36:39.317Z,8264.00
2022-08-22T11:37:43.519Z,8136.00
2022-08-22T11:38:39.324Z,7976.00
2022-08-22T11:39:39.364Z,7824.00
2022-08-22T11:40:39.294Z,7680.00
2022-08-22T11:41:39.280Z,7636.00
2022-08-22T11:42:47.514Z,7652.00
2022-08-22T11:43:40.443Z,7668.00
2022-08-22T11:44:50.758Z,7672.00
2022-08-22T11:45:39.274Z,7668.00
2022-08-22T11:46:40.028Z,7552.00
2022-08-22T11:47:39.251Z,7388.00
2022-08-22T11:48:39.239Z,7096.00
2022-08-22T11:49:39.279Z,6816.00
2022-08-22T11:50:39.228Z,5596.00
2022-08-22T11:51:39.227Z,5592.00
2022-08-22T11:52:39.223Z,6172.00
2022-08-22T11:53:39.229Z,6488.00
2022-08-22T11:54:39.266Z,6712.00
2022-08-22T11:55:39.221Z,5800.00
2022-08-22T11:56:40.178Z,7052.00
2022-08-22T11:57:39.179Z,7052.00
2022-08-22T11:58:39.200Z,7080.00
2022-08-22T11:59:40.003Z,7036.00
2022-08-22T12:00:39.293Z,6984.00
2022-08-22T12:01:39.204Z,6960.00
2022-08-22T12:02:39.211Z,6932.00
2022-08-22T12:03:39.166Z,6908.00
2022-08-22T12:04:39.158Z,6888.00
2022-08-22T12:05:39.276Z,6920.00
2022-08-22T12:06:39.134Z,6940.00
2022-08-22T12:07:39.145Z,6968.00
2022-08-22T12:08:39.154Z,6964.00
2022-08-22T12:09:39.158Z,6960.00
2022-08-22T12:10:39.128Z,6932.00
2022-08-22T12:11:39.248Z,6888.00
2022-08-22T12:12:39.127Z,6868.00
2022-08-22T12:13:39.110Z,6864.00
2022-08-22T12:14:39.115Z,6820.00
2022-08-22T12:15:40.385Z,6828.00
2022-08-22T12:16:39.125Z,6884.00
2022-08-22T12:17:55.339Z,6928.00
2022-08-22T12:18:39.081Z,6976.00